Latest Weather Observations for Gabo Island

IDN60801

Issued at 3:53 pm EDT Tuesday 29 November 2022 (issued every 10 minutes, with the page automatically refreshed every 10 minutes)

About weather observations | Map of weather stations | Latest weather observations for NSW | Other Formats
Station Details ID: 084016 Name: GABO ISLAND LIGHTHOUSE Lat: -37.57 Lon: 149.92 Height: 15.0 m
Data from the previous 72 hours. | See also: Recent months at Gabo Island
Date/Time
EDT
Temp
°C
App
Temp
°C
Dew
Point
°C
Rel
Hum
%
Delta-T
°C
Wind Press
QNH
hPa
Press
MSL
hPa
Rain since
9am
mm
Dir  Spd
km/h
Gust
km/h
Spd
kts
Gust
kts
29/03:30pm 16.2 6.0 10.1 67 3.2 SW 54 63 29 34 1014.2 1014.2 0.2
29/03:00pm 16.2 6.2 10.9 71 2.8 SW 54 63 29 34 1014.3 1014.3 0.2
29/02:30pm 16.4 6.4 10.7 69 3.0 SW 54 65 29 35 1014.3 1014.3 0.2
29/02:00pm 16.9 7.9 10.3 65 3.5 SW 48 63 26 34 1014.1 1014.1 0.2
29/01:30pm 17.0 7.7 10.4 65 3.5 SW 50 61 27 33 1014.1 1014.1 0.2
29/01:00pm 15.8 4.4 9.2 65 3.4 SW 59 72 32 39 1013.6 1013.6 0.2
29/12:30pm 16.3 6.8 9.7 65 3.4 SW 50 63 27 34 1013.5 1013.5 0.2
29/12:00pm 16.4 6.5 9.8 65 3.5 SW 52 61 28 33 1013.5 1013.5 0.2
29/11:30am 16.5 7.9 10.4 67 3.2 SW 46 54 25 29 1013.3 1013.3 0.2
29/11:00am 15.7 6.3 10.2 70 2.9 SW 50 63 27 34 1013.2 1013.2 0.2
29/10:47am 16.1 7.2 9.3 64 3.5 SW 46 65 25 35 1013.0 1013.0 0.2
29/10:30am 15.6 6.6 10.2 70 2.8 SW 48 57 26 31 1012.8 1012.8 0.2
29/10:00am 15.9 7.0 9.1 64 3.5 WSW 46 59 25 32 1012.3 1012.3 0.2
29/09:43am 15.7 7.3 8.9 64 3.5 WSW 43 63 23 34 1012.0 1012.0 0.2
29/09:30am 15.7 8.3 9.8 68 3.1 WSW 39 52 21 28 1011.8 1011.8 0.2
29/09:00am 15.3 9.4 11.3 77 2.1 W 33 43 18 23 1011.7 1011.7 1.0
29/08:30am 14.5 8.6 11.3 81 1.7 WSW 33 41 18 22 1011.3 1011.3 1.0
29/08:00am 14.1 8.8 11.4 84 1.4 W 30 39 16 21 1011.2 1011.2 1.0
29/07:30am 13.0 8.0 11.1 88 1.0 W 28 39 15 21 1011.0 1011.0 1.0
29/07:00am 13.2 7.3 11.1 87 1.1 WSW 33 41 18 22 1010.5 1010.5 1.0
29/06:30am 13.0 6.3 10.9 87 1.1 WSW 37 46 20 25 1009.9 1009.9 1.0
29/06:00am 12.6 4.1 10.8 89 0.9 WSW 46 56 25 30 1009.5 1009.5 1.0
29/05:30am 13.0 3.5 11.1 88 1.0 SW 52 72 28 39 1009.1 1009.1 0.6
29/05:23am 13.9 6.0 10.9 82 1.6 WSW 43 72 23 39 1008.9 1008.9 0.4
29/05:16am 14.0 9.0 11.0 82 1.6 WSW 28 46 15 25 1008.7 1008.7 0.4
29/05:00am 13.6 10.4 11.1 85 1.3 W 19 22 10 12 1008.4 1008.4 0.4
29/04:30am 13.1 10.7 10.1 82 1.5 WNW 13 22 7 12 1007.7 1007.7 0.4
29/04:00am 12.9 10.1 10.1 83 1.4 WNW 15 20 8 11 1007.5 1007.5 0.4
29/03:30am 13.0 10.6 10.2 83 1.4 NW 13 17 7 9 1007.5 1007.5 0.4
29/03:00am 13.2 11.2 10.0 81 1.7 WNW 11 17 6 9 1007.6 1007.6 0.4
29/02:30am 13.4 10.2 10.0 80 1.8 W 17 22 9 12 1007.8 1007.8 0.4
29/02:00am 13.8 11.5 9.0 73 2.4 NNW 11 15 6 8 1007.6 1007.6 0.4
29/01:30am 14.1 11.7 9.9 76 2.2 NNW 13 17 7 9 1007.6 1007.6 0.4
29/01:00am 14.1 11.3 9.9 76 2.2 NW 15 20 8 11 1008.0 1008.0 0.2
29/12:30am 14.3 11.4 9.5 73 2.5 NW 15 20 8 11 1008.0 1008.0 0.2
29/12:00am 14.4 10.6 9.2 71 2.7 NW 19 24 10 13 1008.4 1008.4 0.2
 
Date/Time
EDT
Temp
°C
App
Temp
°C
Dew
Point
°C
Rel
Hum
%
Delta-T
°C
Wind Press
QNH
hPa
Press
MSL
hPa
Rain since
9am
mm
Dir  Spd
km/h
Gust
km/h
Spd
kts
Gust
kts
28/11:30pm 15.0 11.4 8.5 65 3.3 NW 17 24 9 13 1008.5 1008.5 0.2
28/11:00pm 14.6 10.7 8.5 67 3.1 NNW 19 24 10 13 1008.6 1008.6 0.2
28/10:30pm 14.4 11.6 8.6 68 2.9 NW 13 20 7 11 1008.8 1008.8 0.2
28/10:00pm 14.5 12.0 8.2 66 3.2 NW 11 17 6 9 1008.9 1008.9 0.2
28/09:30pm 14.2 11.7 8.4 68 2.9 NW 11 15 6 8 1008.7 1008.7 0.2
28/09:00pm 14.0 12.4 8.6 70 2.7 NW 7 9 4 5 1008.5 1008.5 0.2
28/08:30pm 14.2 11.6 7.7 65 3.2 WNW 11 15 6 8 1008.4 1008.4 0.2
28/08:00pm 14.5 11.7 8.7 68 2.9 WSW 13 17 7 9 1008.3 1008.3 0.2
28/07:30pm 14.8 11.2 8.5 66 3.2 SW 17 20 9 11 1007.8 1007.8 0.2
28/07:00pm 14.8 10.9 8.5 66 3.2 SW 19 20 10 11 1007.4 1007.4 0.2
28/06:30pm 14.8 10.8 8.3 65 3.3 SW 19 20 10 11 1007.1 1007.1 0.2
28/06:00pm 14.8 10.1 7.8 63 3.5 SW 22 26 12 14 1007.0 1007.0 0.2
28/05:30pm 14.8 9.6 8.7 67 3.1 SW 26 30 14 16 1007.0 1007.0 0.2
28/05:00pm 14.7 8.6 8.4 66 3.2 SW 30 35 16 19 1007.0 1007.0 0.2
28/04:30pm 14.9 9.0 9.1 68 3.0 SSW 30 33 16 18 1006.9 1006.9 0.2
28/04:00pm 14.8 9.2 8.7 67 3.1 SSW 28 32 15 17 1006.9 1006.9 0.2
28/03:30pm 14.7 8.4 9.1 69 2.9 SSW 32 35 17 19 1007.0 1007.0 0.2
28/03:00pm 14.8 8.3 8.3 65 3.3 SSW 32 37 17 20 1006.9 1006.9 0.2
28/02:30pm 14.7 7.7 8.4 66 3.2 SSW 35 43 19 23 1007.0 1007.0 0.2
28/02:00pm 14.8 7.2 9.0 68 3.0 SSW 39 44 21 24 1007.0 1007.0 0.2
28/01:30pm 15.2 8.0 9.3 68 3.0 SSW 37 43 20 23 1006.9 1006.9 0.2
28/01:00pm 15.4 8.5 8.9 65 3.3 SSW 35 41 19 22 1006.9 1006.9 0.2
28/12:30pm 15.6 9.1 8.8 64 3.5 SSW 33 37 18 20 1007.0 1007.0 0.2
28/12:00pm 15.7 9.4 8.9 64 3.5 SW 32 35 17 19 1007.1 1007.1 0.2
28/11:30am 15.8 10.9 9.9 68 3.1 SW 26 32 14 17 1007.2 1007.2 0.2
28/11:00am 17.3 13.9 11.1 67 3.4 SW 20 28 11 15 1007.5 1007.5 0.2
28/10:30am 15.3 11.1 9.7 69 2.9 WSW 22 26 12 14 1007.6 1007.6 0.2
28/10:00am 14.9 10.6 9.5 70 2.8 WSW 22 28 12 15 1007.7 1007.7 0.0
28/09:30am 14.5 8.7 9.3 71 2.7 WSW 30 35 16 19 1007.6 1007.6 0.0
28/09:00am 14.4 9.4 9.6 73 2.5 WSW 26 32 14 17 1007.6 1007.6 0.2
28/08:30am 14.1 9.6 9.9 76 2.2 WSW 24 30 13 16 1007.5 1007.5 0.2
28/08:00am 13.3 8.0 9.7 79 1.8 W 28 35 15 19 1007.3 1007.3 0.2
28/07:30am 12.7 8.2 10.2 85 1.3 W 24 28 13 15 1007.0 1007.0 0.2
28/07:00am 12.5 8.2 10.9 90 0.8 WSW 24 30 13 16 1007.0 1007.0 0.2
28/06:30am 12.2 8.8 11.3 94 0.5 W 20 26 11 14 1006.9 1006.9 0.2
28/06:00am 12.3 8.1 11.0 92 0.7 SW 24 32 13 17 1006.5 1006.5 0.2
28/05:30am 12.5 7.5 11.1 91 0.7 WSW 28 35 15 19 1006.0 1006.0 0.2
28/05:00am 12.7 7.7 10.8 88 1.0 WSW 28 33 15 18 1005.9 1005.9 0.2
28/04:30am 12.8 6.4 10.7 87 1.1 WSW 35 43 19 23 1005.5 1005.5 0.2
28/04:00am 13.1 7.0 10.5 84 1.4 WSW 33 43 18 23 1005.5 1005.5 0.2
28/03:30am 13.0 7.1 10.4 84 1.3 WSW 32 39 17 21 1005.5 1005.5 0.2
28/03:00am 13.2 7.2 10.9 86 1.2 WSW 33 39 18 21 1005.6 1005.6 0.2
28/02:30am 13.6 7.7 11.1 85 1.3 WSW 33 41 18 22 1005.9 1005.9 0.2
28/02:00am 13.8 8.1 11.0 83 1.5 WSW 32 37 17 20 1006.2 1006.2 0.2
28/01:30am 14.1 8.3 11.4 84 1.4 WSW 33 39 18 21 1006.1 1006.1 0.2
28/01:00am 13.8 9.0 11.8 88 1.1 WSW 28 35 15 19 1006.3 1006.3 0.2
28/12:30am 13.8 8.9 12.5 92 0.7 WSW 30 35 16 19 1006.3 1006.3 0.2
28/12:00am 14.8 7.8 12.5 86 1.3 SW 41 50 22 27 1006.2 1006.2 0.2
 
Date/Time
EDT
Temp
°C
App
Temp
°C
Dew
Point
°C
Rel
Hum
%
Delta-T
°C
Wind Press
QNH
hPa
Press
MSL
hPa
Rain since
9am
mm
Dir  Spd
km/h
Gust
km/h
Spd
kts
Gust
kts
27/11:30pm 15.3 9.7 11.5 78 2.0 WSW 32 39 17 21 1005.9 1005.9 0.2
27/11:00pm 15.5 10.5 12.1 80 1.9 WSW 30 35 16 19 1005.8 1005.8 0.2
27/10:30pm 15.5 11.7 12.3 81 1.7 WSW 24 28 13 15 1005.8 1005.8 0.2
27/10:00pm 15.3 11.4 12.1 81 1.7 WSW 24 30 13 16 1005.6 1005.6 0.2
27/09:30pm 15.4 11.5 12.0 80 1.8 WSW 24 30 13 16 1005.3 1005.3 0.2
27/09:00pm 15.8 11.5 12.2 79 2.0 SW 26 32 14 17 1005.1 1005.1 0.2
27/08:30pm 15.7 10.7 12.3 80 1.9 SW 30 35 16 19 1004.7 1004.7 0.2
27/08:00pm 15.9 11.4 12.6 81 1.8 SW 28 33 15 18 1004.4 1004.4 0.2
27/07:30pm 16.1 11.3 12.8 81 1.8 SW 30 37 16 20 1003.7 1003.7 0.2
27/07:00pm 16.1 11.3 12.8 81 1.8 SW 30 33 16 18 1003.2 1003.2 0.2
27/06:30pm 16.2 11.1 13.1 82 1.7 SW 32 35 17 19 1002.9 1002.9 0.2
27/06:00pm 16.3 10.6 13.0 81 1.8 SW 35 41 19 22 1002.8 1002.8 0.2
27/05:30pm 16.2 9.6 12.6 79 2.0 SW 39 43 21 23 1002.4 1002.4 0.2
27/05:00pm 16.3 9.8 12.8 80 1.9 SW 39 44 21 24 1002.4 1002.4 0.2
27/04:30pm 16.2 10.5 12.9 81 1.8 SW 35 41 19 22 1002.0 1002.0 0.2
27/04:00pm 16.6 11.8 14.6 88 1.2 SW 33 41 18 22 1002.0 1002.0 0.2
27/03:30pm 16.7 12.4 14.5 87 1.3 SW 30 33 16 18 1001.7 1001.7 0.2
27/03:00pm 17.0 12.6 14.1 83 1.7 SSW 30 35 16 19 1001.7 1001.7 0.2
27/02:30pm 17.4 13.3 15.0 86 1.4 SSW 30 35 16 19 1001.4 1001.4 0.2
27/02:00pm 16.7 12.6 14.9 89 1.0 SSW 30 33 16 18 1001.7 1001.7 0.2
27/01:30pm 17.1 13.1 14.2 83 1.7 SSW 28 32 15 17 1001.4 1001.4 0.0
27/01:00pm 17.3 12.5 14.0 81 1.9 SW 32 35 17 19 1001.6 1001.6 0.0
27/12:30pm 17.2 12.4 14.1 82 1.8 SW 32 35 17 19 1001.6 1001.6 0.0
27/12:00pm 17.0 11.6 13.9 82 1.8 SW 35 43 19 23 1002.0 1002.0 0.0
27/11:30am 16.8 9.9 13.9 83 1.6 SW 43 48 23 26 1002.2 1002.2 0.0
27/11:00am 17.3 10.5 14.2 82 1.8 SW 43 52 23 28 1002.3 1002.3 0.0
27/10:30am 17.2 10.5 14.5 84 1.6 SW 43 48 23 26 1002.4 1002.4 0.0
27/10:00am 17.2 9.9 14.5 84 1.6 SW 46 56 25 30 1002.1 1002.1 0.0
27/09:44am 17.8 13.1 14.3 80 2.0 SW 32 50 17 27 1002.2 1002.2 0.0
27/09:30am 18.6 15.9 14.7 78 2.3 SW 22 33 12 18 1002.3 1002.3 0.0
27/09:00am 18.4 17.4 14.5 78 2.3 WSW 13 17 7 9 1002.3 1002.3 0.0
27/08:30am 17.0 16.5 14.8 87 1.3 WSW 11 17 6 9 1002.0 1002.0 0.0
27/08:00am 17.2 15.1 15.2 88 1.2 N 20 33 11 18 1002.0 1002.0 0.0
27/07:30am 16.8 13.3 14.4 86 1.4 NNE 26 32 14 17 1001.2 1001.2 0.0
27/07:12am 16.7 13.5 14.3 86 1.4 NNE 24 37 13 20 1001.4 1001.4 0.0
27/07:00am 16.3 14.8 14.1 87 1.3 NNW 15 22 8 12 1001.8 1001.8 0.0
27/06:30am 16.1 11.6 13.9 87 1.2 NNE 30 35 16 19 1001.4 1001.4 0.0
27/06:00am 15.9 11.8 13.7 87 1.2 NNE 28 35 15 19 1001.2 1001.2 0.0
27/05:30am 15.8 12.4 13.8 88 1.1 N 24 33 13 18 1001.3 1001.3 0.0
27/05:00am 16.0 10.6 14.0 88 1.1 NNE 35 44 19 24 1001.0 1001.0 0.0
27/04:30am 16.1 11.6 13.9 87 1.2 NNE 30 37 16 20 1001.6 1001.6 0.0
27/04:00am 16.2 11.3 13.7 85 1.4 N 32 39 17 21 1002.5 1002.5 0.0
27/03:30am 16.2 10.8 13.9 86 1.3 NNE 35 44 19 24 1002.3 1002.3 0.0
27/03:00am 16.1 9.8 13.6 85 1.4 NNE 39 48 21 26 1002.5 1002.5 0.0
27/02:30am 16.2 10.3 13.7 85 1.4 NNE 37 48 20 26 1002.8 1002.8 0.0
27/02:00am 16.3 10.0 13.6 84 1.5 NNE 39 48 21 26 1003.1 1003.1 0.0
27/01:30am 16.3 9.0 13.4 83 1.6 NNE 44 56 24 30 1002.9 1002.9 0.0
27/01:00am 16.3 8.9 13.2 82 1.7 NNE 44 56 24 30 1003.3 1003.3 0.0
27/12:31am 16.4 10.3 13.1 81 1.8 N 37 56 20 30 1004.2 1004.2 0.0
27/12:30am 16.3 9.8 13.0 81 1.8 N 39 56 21 30 1004.3 1004.3 0.0
27/12:28am 16.3 9.5 13.0 81 1.8 N 41 59 22 32 1004.4 1004.4 0.0
27/12:00am 16.5 8.8 13.2 81 1.9 NNE 46 61 25 33 1003.9 1003.9 0.0
 
Date/Time
EDT
Temp
°C
App
Temp
°C
Dew
Point
°C
Rel
Hum
%
Delta-T
°C
Wind Press
QNH
hPa
Press
MSL
hPa
Rain since
9am
mm
Dir  Spd
km/h
Gust
km/h
Spd
kts
Gust
kts
26/11:30pm 16.5 9.4 13.4 82 1.7 NNE 43 59 23 32 1004.9 1004.9 0.0
26/11:00pm 16.5 9.3 13.6 83 1.6 NNE 44 56 24 30 1005.1 1005.1 0.0
26/10:30pm 16.5 9.8 13.4 82 1.7 NNE 41 50 22 27 1006.2 1006.2 0.0
26/10:00pm 16.3 9.5 13.0 81 1.8 NNE 41 50 22 27 1006.3 1006.3 0.0
26/09:30pm 16.3 9.7 12.7 79 2.0 NNE 39 50 21 27 1006.8 1006.8 0.0
26/09:00pm 16.3 10.5 12.8 80 1.9 NNE 35 43 19 23 1007.2 1007.2 0.0
26/08:30pm 16.3 9.8 13.0 81 1.8 NNE 39 52 21 28 1007.1 1007.1 0.0
26/08:00pm 16.5 9.6 12.8 79 2.1 NNE 41 52 22 28 1007.2 1007.2 0.0
26/07:30pm 16.7 9.9 13.0 79 2.1 NNE 41 54 22 29 1007.2 1007.2 0.0
26/07:00pm 16.7 9.5 13.2 80 2.0 NNE 43 52 23 28 1007.2 1007.2 0.0
26/06:30pm 16.8 9.5 12.9 78 2.2 NNE 43 50 23 27 1007.5 1007.5 0.0
26/06:00pm 17.1 9.8 12.8 76 2.4 NNE 43 50 23 27 1007.8 1007.8 0.0
26/05:30pm 17.3 10.3 12.6 74 2.6 NNE 41 50 22 27 1008.1 1008.1 0.0
26/05:00pm 17.5 10.6 12.8 74 2.6 NNE 41 50 22 27 1008.3 1008.3 0.0
26/04:30pm 18.0 11.1 12.9 72 2.9 NE 41 48 22 26 1008.5 1008.5 0.0
26/04:00pm 18.0 11.1 12.9 72 2.9 NE 41 48 22 26 1009.1 1009.1 0.0

Other formats

Comma delimited format used in spreadsheet applications
http://www.bom.gov.au/fwo/IDN60801/IDN60801.94933.axf

JavaScript Object Notation format (JSON) in row-major order
http://www.bom.gov.au/fwo/IDN60801/IDN60801.94933.json

Data quality

Most of these data are generated automatically and are frequently updated. Quality checks on data are not normally performed. It is possible for incorrect values to appear. Refer to information at About Latest Weather Observations and please check the disclaimer before using these data.